createdAt,value
2019-02-14T00:44:21.406Z,101285.97
2019-02-14T00:46:54.276Z,101293.16
2019-02-14T00:49:26.966Z,101291.45
2019-02-14T00:51:59.569Z,101289.52
2019-02-14T00:54:32.556Z,101294.87
2019-02-14T00:57:05.226Z,101292.43
2019-02-14T00:59:37.917Z,101296.69
2019-02-14T01:02:10.547Z,101298.27
2019-02-14T01:04:43.246Z,101301.58
2019-02-14T01:07:16.896Z,101303.03
2019-02-14T01:09:49.497Z,101306.07
2019-02-14T01:12:22.618Z,101303.75
2019-02-14T01:14:55.497Z,101309.39
2019-02-14T01:17:28.336Z,101306.20
2019-02-14T01:20:01.579Z,101306.82
2019-02-14T01:22:34.208Z,101310.84
2019-02-14T01:25:07.893Z,101307.30
2019-02-14T01:27:40.756Z,101310.72
2019-02-14T01:30:13.659Z,101316.45
2019-02-14T01:32:48.220Z,101318.37
2019-02-14T01:35:20.956Z,101315.70
2019-02-14T01:37:53.647Z,101315.81
2019-02-14T01:40:26.150Z,101306.07
2019-02-14T01:42:58.846Z,101305.95
2019-02-14T01:45:31.535Z,101308.99
2019-02-14T01:48:04.236Z,101303.88
2019-02-14T01:50:36.856Z,101303.75
2019-02-14T01:53:09.506Z,101301.58
2019-02-14T01:55:42.066Z,101312.66
2019-02-14T01:58:14.691Z,101306.20
2019-02-14T02:00:47.453Z,101309.62
2019-02-14T02:03:20.166Z,101311.31
2019-02-14T02:05:52.687Z,101306.70
2019-02-14T02:08:25.406Z,101306.70
2019-02-14T02:10:58.066Z,101312.66
2019-02-14T02:13:30.986Z,101312.89
2019-02-14T02:16:03.574Z,101317.78
2019-02-14T02:18:38.388Z,101321.56
2019-02-14T02:21:10.886Z,101324.48
2019-02-14T02:23:43.677Z,101319.84
2019-02-14T02:26:16.326Z,101323.86
2019-02-14T02:28:48.986Z,101322.28
2019-02-14T02:31:21.666Z,101320.58
2019-02-14T02:33:54.245Z,101326.42
2019-02-14T02:36:26.896Z,101325.83
2019-02-14T02:38:59.799Z,101330.33
2019-02-14T02:41:32.536Z,101327.28
2019-02-14T02:44:05.177Z,101325.47
2019-02-14T02:46:37.894Z,101333.39
2019-02-14T02:49:10.645Z,101332.29
2019-02-14T02:51:44.268Z,101332.77
2019-02-14T02:54:16.816Z,101329.09
2019-02-14T02:56:49.506Z,101337.53
2019-02-14T02:59:23.376Z,101330.56
2019-02-14T03:01:56.075Z,101342.39
2019-02-14T03:04:28.630Z,101339.70
2019-02-14T03:07:01.297Z,101338.48
2019-02-14T03:09:33.998Z,101342.50
2019-02-14T03:12:06.625Z,101342.89
2019-02-14T03:14:40.189Z,101337.53
2019-02-14T03:17:12.778Z,101338.87
2019-02-14T03:19:45.303Z,101344.59
2019-02-14T03:22:18.137Z,101342.27
2019-02-14T03:24:50.776Z,101349.09
2019-02-14T03:27:23.403Z,101354.22
2019-02-14T03:29:56.186Z,101357.13
2019-02-14T03:32:28.758Z,101366.16
2019-02-14T03:35:01.526Z,101370.66
2019-02-14T03:37:34.046Z,101382.02
2019-02-14T03:40:07.916Z,101385.28
2019-02-14T03:42:40.556Z,101388.20
2019-02-14T03:45:16.616Z,101388.95
2019-02-14T03:47:49.165Z,101383.83
2019-02-14T03:50:22.045Z,101382.13
2019-02-14T03:52:54.557Z,101383.70
2019-02-14T03:55:27.256Z,101372.63
2019-02-14T03:57:59.886Z,101368.84
2019-02-14T04:00:32.616Z,101364.81
2019-02-14T04:03:05.296Z,101366.52
2019-02-14T04:05:37.925Z,101362.27
2019-02-14T04:08:10.596Z,101360.32
2019-02-14T04:10:43.476Z,101358.36
2019-02-14T04:13:16.246Z,101357.25
2019-02-14T04:15:48.898Z,101354.56
2019-02-14T04:18:21.583Z,101353.73
2019-02-14T04:20:54.195Z,101357.25
2019-02-14T04:23:26.956Z,101352.63
2019-02-14T04:25:59.577Z,101347.63
2019-02-14T04:28:32.348Z,101352.87
2019-02-14T04:31:04.926Z,101346.52
2019-02-14T04:33:37.735Z,101354.56
2019-02-14T04:36:10.296Z,101352.88
2019-02-14T04:38:43.087Z,101347.63
2019-02-14T04:41:15.757Z,101345.19
2019-02-14T04:43:48.433Z,101353.35
2019-02-14T04:46:21.126Z,101359.34
2019-02-14T04:48:53.926Z,101365.06
2019-02-14T04:51:26.656Z,101360.17
2019-02-14T04:53:59.480Z,101363.59
2019-02-14T04:56:32.253Z,101368.45
2019-02-14T04:59:04.817Z,101370.06
2019-02-14T05:01:37.676Z,101383.34
2019-02-14T05:04:10.405Z,101389.55
2019-02-14T05:06:44.488Z,101384.69
2019-02-14T05:09:17.126Z,101388.71
2019-02-14T05:11:49.677Z,101388.95
2019-02-14T05:14:22.541Z,101388.32
2019-02-14T05:16:55.116Z,101395.53
2019-02-14T05:19:27.916Z,101390.17
2019-02-14T05:22:01.486Z,101394.66
2019-02-14T05:24:34.186Z,101396.74
2019-02-14T05:27:06.936Z,101399.05
2019-02-14T05:29:39.586Z,101404.29
2019-02-14T05:32:12.230Z,101405.50
2019-02-14T05:34:44.867Z,101414.78
2019-02-14T05:37:17.528Z,101416.36
2019-02-14T05:39:50.366Z,101416.00
2019-02-14T05:42:23.067Z,101420.73
2019-02-14T05:44:55.766Z,101421.47
2019-02-14T05:47:28.386Z,101425.85
2019-02-14T05:50:01.157Z,101427.70
2019-02-14T05:52:33.986Z,101434.41
2019-02-14T05:55:07.103Z,101429.63
2019-02-14T05:57:39.728Z,101436.33
2019-02-14T06:00:14.186Z,101440.75
2019-02-14T06:02:47.087Z,101441.11
2019-02-14T06:05:19.827Z,101447.08
2019-02-14T06:07:52.606Z,101450.84
2019-02-14T06:10:25.238Z,101455.34
2019-02-14T06:12:57.876Z,101453.05
2019-02-14T06:15:30.627Z,101460.48
2019-02-14T06:18:03.196Z,101469.00
2019-02-14T06:20:36.046Z,101473.52
2019-02-14T06:23:08.751Z,101475.34
2019-02-14T06:25:41.586Z,101477.66
2019-02-14T06:28:14.176Z,101474.98
2019-02-14T06:30:47.220Z,101484.72
2019-02-14T06:33:19.987Z,101482.06
2019-02-14T06:35:52.753Z,101479.13
2019-02-14T06:38:25.506Z,101482.05
2019-02-14T06:40:58.226Z,101498.75
2019-02-14T06:43:30.917Z,101499.47
2019-02-14T06:46:03.626Z,101505.34
2019-02-14T06:48:36.537Z,101504.11
2019-02-14T06:51:09.158Z,101501.43
2019-02-14T06:53:41.679Z,101503.02
2019-02-14T06:56:14.466Z,101506.42
2019-02-14T06:58:47.207Z,101518.67
2019-02-14T07:01:19.893Z,101524.04
2019-02-14T07:03:52.786Z,101516.86
2019-02-14T07:06:25.496Z,101522.20
2019-02-14T07:08:58.253Z,101512.59
2019-02-14T07:11:31.126Z,101521.60
2019-02-14T07:14:04.249Z,101526.49
2019-02-14T07:16:37.146Z,101527.95
2019-02-14T07:19:09.776Z,101532.23
2019-02-14T07:21:42.736Z,101542.72
2019-02-14T07:24:15.396Z,101539.91
2019-02-14T07:26:48.136Z,101542.70
2019-02-14T07:29:20.786Z,101543.72
2019-02-14T07:31:53.416Z,101544.80
2019-02-14T07:34:26.156Z,101538.32
2019-02-14T07:36:58.985Z,101548.67
2019-02-14T07:39:31.816Z,101550.98
2019-02-14T07:42:04.645Z,101538.78
2019-02-14T07:44:37.266Z,101545.13
2019-02-14T07:47:09.987Z,101543.78
2019-02-14T07:49:42.649Z,101543.64
2019-02-14T07:52:15.425Z,101550.72
2019-02-14T07:54:47.986Z,101549.76
2019-02-14T07:57:21.608Z,101556.22
2019-02-14T07:59:54.326Z,101552.19
2019-02-14T08:02:27.158Z,101551.84
2019-02-14T08:04:59.946Z,101552.22
2019-02-14T08:07:35.928Z,101554.90
2019-02-14T08:10:07.818Z,101560.73
2019-02-14T08:12:41.003Z,101560.48
2019-02-14T08:15:15.337Z,101564.05
2019-02-14T08:17:48.286Z,101571.09
2019-02-14T08:20:21.027Z,101574.28
2019-02-14T08:22:53.729Z,101571.95
2019-02-14T08:25:26.575Z,101577.32
2019-02-14T08:27:59.447Z,101586.36
2019-02-14T08:30:32.418Z,101583.07
2019-02-14T08:33:05.036Z,101587.20
2019-02-14T08:35:37.636Z,101586.23
2019-02-14T08:38:11.383Z,101588.30
2019-02-14T08:40:44.386Z,101599.39
2019-02-14T08:43:17.069Z,101593.55
2019-02-14T08:45:49.816Z,101594.89
2019-02-14T08:48:22.718Z,101592.20
2019-02-14T08:50:55.629Z,101594.27
2019-02-14T08:53:28.444Z,101582.59
2019-02-14T08:56:01.125Z,101573.80
2019-02-14T08:58:33.766Z,101575.63
2019-02-14T09:01:06.497Z,101574.91
2019-02-14T09:03:39.256Z,101570.89
2019-02-14T09:06:14.683Z,101564.55
2019-02-14T09:08:47.489Z,101566.50
2019-02-14T09:11:20.201Z,101575.05
2019-02-14T09:13:52.975Z,101578.69
2019-02-14T09:16:25.495Z,101585.87
2019-02-14T09:18:58.192Z,101580.14
2019-02-14T09:21:31.051Z,101577.84
2019-02-14T09:24:03.863Z,101578.67
2019-02-14T09:26:36.939Z,101582.11
2019-02-14T09:29:11.822Z,101581.75
2019-02-14T09:31:44.262Z,101587.22
2019-02-14T09:34:17.099Z,101593.56
2019-02-14T09:36:49.819Z,101597.11
2019-02-14T09:39:22.619Z,101605.05
2019-02-14T09:41:55.339Z,101609.20
2019-02-14T09:44:28.188Z,101610.30
2019-02-14T09:47:00.938Z,101612.00
2019-02-14T09:49:33.640Z,101615.91
2019-02-14T09:52:06.339Z,101611.17
2019-02-14T09:54:39.175Z,101615.36
2019-02-14T09:57:11.960Z,101613.90
2019-02-14T09:59:44.909Z,101620.25
2019-02-14T10:02:17.659Z,101625.27
2019-02-14T10:04:50.299Z,101623.59
2019-02-14T10:07:23.153Z,101633.73
2019-02-14T10:09:56.019Z,101622.13
2019-02-14T10:12:28.529Z,101627.14
2019-02-14T10:15:01.450Z,101627.62
2019-02-14T10:17:34.288Z,101630.19
2019-02-14T10:20:08.228Z,101634.21
2019-02-14T10:25:13.321Z,101612.87
2019-02-14T10:27:46.229Z,101609.95
2019-02-14T10:30:20.255Z,101606.03
2019-02-14T10:32:53.818Z,101620.81
2019-02-14T10:35:26.609Z,101611.27
2019-02-14T10:37:59.229Z,101620.19
2019-02-14T10:40:31.839Z,101625.67
2019-02-14T10:43:04.644Z,101622.16
2019-02-14T10:45:37.282Z,101620.92
2019-02-14T10:48:10.043Z,101632.27
2019-02-14T10:50:42.709Z,101628.86
2019-02-14T10:53:15.640Z,101629.11
2019-02-14T10:55:48.269Z,101629.70
2019-02-14T10:58:21.180Z,101630.81
2019-02-14T11:00:53.812Z,101624.82
2019-02-14T11:03:26.569Z,101622.14
2019-02-14T11:05:59.300Z,101616.77
2019-02-14T11:08:32.238Z,101615.43
2019-02-14T11:11:06.039Z,101615.30
2019-02-14T11:13:38.829Z,101622.25
2019-02-14T11:16:11.499Z,101623.48
2019-02-14T11:18:44.711Z,101622.39
2019-02-14T11:21:17.319Z,101622.89
2019-02-14T11:23:50.030Z,101628.98
2019-02-14T11:26:22.859Z,101629.34
2019-02-14T11:28:55.419Z,101638.02
2019-02-14T11:31:28.259Z,101647.18
2019-02-14T11:34:00.950Z,101638.88
2019-02-14T11:36:33.769Z,101644.25
2019-02-14T11:39:10.029Z,101636.94
2019-02-14T11:41:42.790Z,101638.30
2019-02-14T11:44:15.299Z,101632.81
2019-02-14T11:46:51.452Z,101636.67
2019-02-14T11:49:22.339Z,101628.87
2019-02-14T11:51:55.021Z,101625.64
2019-02-14T11:54:27.919Z,101621.97
2019-02-14T11:57:01.087Z,101624.40
2019-02-14T11:59:33.907Z,101626.33
2019-02-14T12:02:06.609Z,101619.75
2019-02-14T12:04:39.359Z,101634.16
2019-02-14T12:07:12.370Z,101622.30
2019-02-14T12:09:45.060Z,101621.72
2019-02-14T12:12:17.809Z,101614.38
2019-02-14T12:14:50.799Z,101619.23
2019-02-14T12:17:23.546Z,101619.03
2019-02-14T12:19:56.339Z,101607.31
2019-02-14T12:22:28.979Z,101607.31
2019-02-14T12:25:01.711Z,101608.91
2019-02-14T12:27:34.579Z,101612.06
2019-02-14T12:30:09.311Z,101608.66
2019-02-14T12:32:42.008Z,101622.95
2019-02-14T12:35:14.713Z,101618.66
2019-02-14T12:37:47.559Z,101619.04
2019-02-14T12:40:20.329Z,101608.42
2019-02-14T12:42:54.008Z,101615.26
2019-02-14T12:45:26.930Z,101611.23
2019-02-14T12:47:59.549Z,101603.17
